Time;durP1;ratioP1;P1;durP2;ratioP2;P2;SDS_P1;SDS_P2;PMS_P1;PMS_P2;Temp;Humidity;BMP_temperature;BMP_pressure;BME280_temperature;BME280_humidity;BME280_pressure;Samples;Min_cycle;Max_cycle;Signal;HPM_P1;HPM_P2
2021/10/28 00:14:32;;;;;;;33.72;14.55;;;;;;;6.85;100.00;101977.41;5141968;28;20023;-73
2021/10/28 00:17:10;;;;;;;46.15;17.13;;;;;;;6.97;100.00;101965.78;5141781;28;20039;-74
2021/10/28 00:19:41;;;;;;;46.22;19.52;;;;;;;7.17;100.00;101966.09;5141193;28;20031;-72
2021/10/28 00:22:13;;;;;;;44.25;18.73;;;;;;;7.36;100.00;101969.06;5141947;28;20034;-74
2021/10/28 00:24:45;;;;;;;46.75;18.50;;;;;;;7.44;100.00;101968.50;5141735;28;20361;-73
2021/10/28 00:27:17;;;;;;;40.00;17.80;;;;;;;7.47;100.00;101958.41;5141636;28;20034;-73
2021/10/28 00:29:47;;;;;;;45.22;17.90;;;;;;;7.53;100.00;101957.97;5141437;28;20034;-74
2021/10/28 00:32:18;;;;;;;44.63;17.83;;;;;;;7.57;100.00;101963.88;5141591;28;20106;-73
2021/10/28 00:34:48;;;;;;;38.05;18.63;;;;;;;7.62;100.00;101967.03;5141167;28;20445;-74
2021/10/28 00:37:19;;;;;;;48.05;19.25;;;;;;;7.67;100.00;101958.69;5140086;28;20067;-73
2021/10/28 00:39:50;;;;;;;46.70;17.10;;;;;;;7.67;100.00;101954.19;5140216;28;20030;-73
2021/10/28 00:42:21;;;;;;;47.05;19.33;;;;;;;7.68;100.00;101960.38;5141210;28;20054;-73
2021/10/28 00:44:51;;;;;;;41.78;17.33;;;;;;;7.78;100.00;101959.56;5141606;28;20437;-73
2021/10/28 00:47:22;;;;;;;41.92;18.02;;;;;;;7.80;100.00;101954.09;5141430;28;20106;-73
2021/10/28 00:49:52;;;;;;;41.88;16.13;;;;;;;7.85;100.00;101951.91;5140898;28;20488;-74
2021/10/28 00:52:23;;;;;;;38.30;16.35;;;;;;;7.89;100.00;101956.03;5141282;28;20042;-74
2021/10/28 00:54:53;;;;;;;42.28;18.23;;;;;;;7.98;100.00;101947.28;5140811;28;20078;-74
2021/10/28 00:57:24;;;;;;;40.88;18.10;;;;;;;8.00;100.00;101955.16;5140858;28;20049;-73
2021/10/28 00:59:54;;;;;;;44.88;17.45;;;;;;;7.99;100.00;101958.81;5134136;28;20022;-73
2021/10/28 01:02:25;;;;;;;49.58;18.17;;;;;;;8.02;100.00;101953.22;5138049;28;20507;-73
2021/10/28 01:04:56;;;;;;;38.22;16.88;;;;;;;8.01;100.00;101956.88;5138693;28;20027;-72
2021/10/28 01:07:27;;;;;;;37.90;16.55;;;;;;;7.97;100.00;101950.91;5139306;28;21640;-72
2021/10/28 01:09:58;;;;;;;34.70;15.68;;;;;;;7.94;100.00;101947.66;5138519;28;20030;-72
2021/10/28 01:12:29;;;;;;;37.20;15.68;;;;;;;7.90;100.00;101941.69;5130550;28;20031;-72
2021/10/28 01:14:59;;;;;;;33.55;14.68;;;;;;;7.89;100.00;101948.00;5138926;28;20035;-72
2021/10/28 01:17:31;;;;;;;41.00;15.38;;;;;;;7.91;100.00;101939.88;5138514;28;20121;-72
2021/10/28 01:20:02;;;;;;;34.92;13.85;;;;;;;7.90;100.00;101938.19;5138194;28;20054;-72
2021/10/28 01:22:33;;;;;;;35.10;14.40;;;;;;;7.98;100.00;101931.25;5138704;28;20038;-71
2021/10/28 01:25:04;;;;;;;32.65;14.55;;;;;;;7.99;100.00;101930.28;5136307;28;20047;-72
2021/10/28 01:27:34;;;;;;;31.27;15.45;;;;;;;8.02;100.00;101929.16;5138880;28;20109;-73
2021/10/28 01:30:07;;;;;;;38.67;15.27;;;;;;;8.00;100.00;101926.63;5138173;28;20077;-73
2021/10/28 01:32:37;;;;;;;36.47;14.27;;;;;;;8.00;100.00;101929.28;5138399;28;20026;-73
2021/10/28 01:35:08;;;;;;;28.65;13.73;;;;;;;7.93;100.00;101921.88;5137774;28;20021;-72
2021/10/28 01:37:45;;;;;;;26.92;13.25;;;;;;;7.87;100.00;101928.56;5138217;28;20113;-72
2021/10/28 01:40:17;;;;;;;35.17;14.18;;;;;;;7.78;100.00;101932.84;5124319;28;20027;-72
2021/10/28 01:42:50;;;;;;;30.75;13.25;;;;;;;7.71;100.00;101926.28;5138503;28;20393;-72
2021/10/28 01:45:20;;;;;;;28.27;12.85;;;;;;;7.64;100.00;101921.53;5138169;28;20434;-72
2021/10/28 01:47:51;;;;;;;28.20;12.82;;;;;;;7.61;100.00;101913.75;5138576;28;20031;-72
2021/10/28 01:50:22;;;;;;;30.52;13.57;;;;;;;7.56;100.00;101921.28;5137882;28;20513;-72
2021/10/28 01:52:58;;;;;;;34.15;14.00;;;;;;;7.51;100.00;101911.81;5138538;28;20031;-72
2021/10/28 01:55:34;;;;;;;27.70;12.77;;;;;;;7.49;100.00;101900.41;5137977;28;20121;-72
2021/10/28 01:58:06;;;;;;;35.58;13.95;;;;;;;7.47;100.00;101910.34;5138118;28;20118;-72
2021/10/28 02:00:49;;;;;;;28.67;14.07;;;;;;;7.46;100.00;101897.13;5138721;28;20523;-73
2021/10/28 02:03:21;;;;;;;31.08;13.82;;;;;;;7.43;100.00;101894.69;5138495;28;20110;-72
2021/10/28 02:05:53;;;;;;;38.80;14.65;;;;;;;7.39;100.00;101899.44;5138405;28;20098;-72
2021/10/28 02:08:41;;;;;;;29.02;12.50;;;;;;;7.34;100.00;101893.59;5137584;28;20077;-72
2021/10/28 02:11:21;;;;;;;31.88;13.43;;;;;;;7.34;100.00;101890.94;5138592;28;20186;-72
2021/10/28 02:13:57;;;;;;;35.95;13.95;;;;;;;7.34;100.00;101892.75;5138009;28;20105;-72
2021/10/28 02:16:31;;;;;;;55.53;16.58;;;;;;;7.35;100.00;101889.97;5138225;28;20071;-72
2021/10/28 02:19:04;;;;;;;25.85;12.20;;;;;;;7.30;100.00;101884.13;5137120;28;20451;-72
2021/10/28 02:21:34;;;;;;;33.03;11.90;;;;;;;7.20;100.00;101880.47;5138180;28;20158;-73
2021/10/28 02:24:05;;;;;;;26.42;11.60;;;;;;;7.13;100.00;101879.25;5137899;28;20106;-73
2021/10/28 02:26:35;;;;;;;28.15;12.73;;;;;;;7.08;100.00;101876.97;5138594;28;20026;-73
2021/10/28 02:29:06;;;;;;;36.50;14.45;;;;;;;7.08;100.00;101876.06;5137612;28;20026;-73
2021/10/28 02:31:41;;;;;;;42.60;14.85;;;;;;;7.11;100.00;101881.19;5137575;28;20384;-73
2021/10/28 02:34:12;;;;;;;33.33;13.02;;;;;;;7.13;100.00;101868.56;5137917;28;20416;-73
2021/10/28 02:36:42;;;;;;;24.92;11.85;;;;;;;7.11;100.00;101870.50;5139451;28;20103;-73
2021/10/28 02:39:13;;;;;;;21.25;10.70;;;;;;;7.05;100.00;101871.00;5140421;28;20404;-73
2021/10/28 02:41:43;;;;;;;27.45;11.73;;;;;;;6.98;100.00;101860.81;5141941;28;20113;-73
2021/10/28 02:44:14;;;;;;;31.65;12.55;;;;;;;6.96;100.00;101867.22;5141857;28;20026;-73
2021/10/28 02:46:45;;;;;;;18.30;9.43;;;;;;;6.85;100.00;101860.03;5141897;28;20469;-73
2021/10/28 02:49:16;;;;;;;23.80;10.45;;;;;;;6.74;100.00;101860.00;5142078;28;20037;-73
2021/10/28 02:51:47;;;;;;;22.50;10.35;;;;;;;6.70;100.00;101858.53;5141844;28;20382;-73
2021/10/28 02:54:20;;;;;;;29.20;12.13;;;;;;;6.66;100.00;101849.06;5141477;28;20034;-72
2021/10/28 02:56:51;;;;;;;32.22;10.63;;;;;;;6.67;100.00;101842.75;5141998;28;20259;-71
2021/10/28 02:59:22;;;;;;;23.70;10.80;;;;;;;6.61;100.00;101846.75;5141267;28;20023;-71
2021/10/28 03:01:54;;;;;;;26.02;11.23;;;;;;;6.50;100.00;101844.03;5141628;28;20037;-71
2021/10/28 03:04:25;;;;;;;22.92;9.32;;;;;;;6.39;100.00;101836.84;5141347;28;20027;-71
2021/10/28 03:06:57;;;;;;;18.75;9.02;;;;;;;6.32;100.00;101834.75;5128115;28;20496;-71
2021/10/28 03:09:29;;;;;;;18.02;8.80;;;;;;;6.25;100.00;101826.38;5140803;28;20038;-70
2021/10/28 03:12:00;;;;;;;20.58;8.75;;;;;;;6.19;100.00;101818.84;5141961;28;20493;-70
2021/10/28 03:14:35;;;;;;;18.30;8.25;;;;;;;6.13;100.00;101825.47;5140801;28;20081;-70
2021/10/28 03:28:11;;;;;;;64.43;13.05;;;;;;;6.13;100.00;101811.31;5129175;28;20129;-71
2021/10/28 03:30:42;;;;;;;22.15;10.20;;;;;;;6.09;100.00;101802.69;5140534;28;20465;-71
2021/10/28 03:33:17;;;;;;;23.50;10.00;;;;;;;6.07;100.00;101803.75;5141830;28;20065;-71
2021/10/28 03:35:47;;;;;;;20.73;9.20;;;;;;;6.03;100.00;101808.47;5140446;28;20053;-71
2021/10/28 03:38:27;;;;;;;32.65;10.70;;;;;;;6.01;100.00;101809.53;5140682;28;20084;-71
2021/10/28 03:43:47;;;;;;;25.83;10.85;;;;;;;5.93;100.00;101800.31;5141450;28;20118;-71
2021/10/28 03:49:05;;;;;;;22.17;10.07;;;;;;;5.90;100.00;101802.31;5139921;28;20093;-71
2021/10/28 03:57:14;;;;;;;18.92;8.77;;;;;;;5.85;100.00;101792.00;5140186;28;20031;-71
2021/10/28 04:00:03;;;;;;;20.10;9.55;;;;;;;5.84;100.00;101789.44;5139944;28;20037;-71
2021/10/28 04:08:24;;;;;;;21.83;9.40;;;;;;;5.67;100.00;101793.31;5139992;28;20026;-70
2021/10/28 04:16:32;;;;;;;18.23;8.63;;;;;;;5.58;100.00;101786.88;5140133;28;20026;-70
2021/10/28 04:28:53;;;;;;;17.63;8.32;;;;;;;5.68;100.00;101787.91;5145204;28;20401;-70
2021/10/28 04:30:47;;;;;;;23.10;9.15;;;;;;;5.65;100.00;101777.47;5139462;28;20027;-71
2021/10/28 04:33:17;;;;;;;22.67;8.82;;;;;;;5.56;100.00;101782.63;5139713;28;20046;-70
2021/10/28 04:35:48;;;;;;;22.90;9.60;;;;;;;5.51;100.00;101782.94;5139262;28;20030;-71
2021/10/28 04:38:18;;;;;;;20.85;8.75;;;;;;;5.44;100.00;101777.22;5140163;28;20417;-70
2021/10/28 04:40:49;;;;;;;16.02;7.78;;;;;;;5.40;100.00;101775.75;5137950;28;20486;-70
2021/10/28 04:43:19;;;;;;;15.32;7.68;;;;;;;5.35;100.00;101777.88;5140012;28;20037;-70
2021/10/28 04:45:49;;;;;;;17.38;8.80;;;;;;;5.30;100.00;101773.84;5139234;28;20508;-70
2021/10/28 04:48:20;;;;;;;17.15;8.07;;;;;;;5.24;100.00;101775.13;5139999;28;20039;-71
2021/10/28 04:50:51;;;;;;;23.20;8.20;;;;;;;5.19;100.00;101771.97;5139387;28;20022;-71
2021/10/28 04:53:23;;;;;;;15.98;7.07;;;;;;;5.16;100.00;101774.81;5138755;28;20034;-71
2021/10/28 04:55:53;;;;;;;28.35;8.10;;;;;;;5.18;100.00;101775.56;5139053;28;20034;-70
2021/10/28 04:58:24;;;;;;;23.30;8.90;;;;;;;5.14;100.00;101769.63;5138957;28;20023;-71
2021/10/28 05:00:54;;;;;;;20.35;8.75;;;;;;;5.16;100.00;101769.50;5138164;28;20069;-70
2021/10/28 05:03:25;;;;;;;20.60;9.15;;;;;;;5.22;100.00;101776.19;5139351;28;20026;-71
2021/10/28 05:05:55;;;;;;;20.83;9.18;;;;;;;5.20;100.00;101768.31;5139116;28;20023;-71
2021/10/28 05:08:26;;;;;;;30.45;11.35;;;;;;;5.23;100.00;101757.47;5139265;28;20376;-71
2021/10/28 05:10:56;;;;;;;21.25;11.07;;;;;;;5.29;100.00;101762.34;5139885;28;20033;-71
2021/10/28 05:13:27;;;;;;;18.73;9.85;;;;;;;5.25;100.00;101768.84;5139131;28;20461;-71
2021/10/28 05:15:57;;;;;;;20.05;10.70;;;;;;;5.17;100.00;101768.53;5138554;28;20220;-72
2021/10/28 05:18:28;;;;;;;30.45;12.82;;;;;;;5.08;100.00;101766.56;5138889;28;20019;-71
2021/10/28 05:20:59;;;;;;;33.50;14.02;;;;;;;5.01;100.00;101762.59;5138512;28;20035;-71
2021/10/28 05:23:29;;;;;;;19.02;10.05;;;;;;;4.94;100.00;101763.03;5138897;28;20085;-71
2021/10/28 05:26:00;;;;;;;21.85;9.93;;;;;;;4.91;100.00;101767.72;5138861;28;20037;-71
2021/10/28 05:28:31;;;;;;;21.42;10.00;;;;;;;4.87;100.00;101764.44;5138475;28;20034;-72
2021/10/28 05:31:02;;;;;;;22.63;10.52;;;;;;;4.85;100.00;101771.66;5139099;28;20030;-71
2021/10/28 05:33:33;;;;;;;26.13;10.85;;;;;;;4.83;100.00;101762.94;5138505;28;20026;-71
2021/10/28 05:36:04;;;;;;;25.17;11.13;;;;;;;4.88;100.00;101747.53;5138445;28;20031;-71
2021/10/28 05:38:34;;;;;;;28.08;11.85;;;;;;;4.93;100.00;101748.06;5152349;28;20653;-71
2021/10/28 05:41:05;;;;;;;29.13;10.82;;;;;;;4.93;100.00;101742.72;5138239;28;20110;-71
2021/10/28 05:43:35;;;;;;;24.58;11.52;;;;;;;4.90;100.00;101734.97;5138296;28;20057;-71
2021/10/28 05:46:06;;;;;;;26.42;10.98;;;;;;;4.90;100.00;101732.31;5138651;28;20027;-73
2021/10/28 05:48:37;;;;;;;26.40;11.77;;;;;;;4.92;100.00;101733.06;5138393;28;20045;-72
2021/10/28 05:51:07;;;;;;;26.02;12.10;;;;;;;4.90;100.00;101734.13;5138383;28;20023;-72
2021/10/28 05:53:39;;;;;;;31.75;11.57;;;;;;;4.86;100.00;101730.81;5137758;28;20552;-72
2021/10/28 05:56:09;;;;;;;22.40;11.20;;;;;;;4.83;100.00;101731.03;5138164;28;20105;-71
2021/10/28 05:58:40;;;;;;;31.48;13.10;;;;;;;4.82;100.00;101731.13;5137881;28;20114;-72
2021/10/28 06:01:10;;;;;;;38.15;12.80;;;;;;;4.81;100.00;101724.97;5138191;28;20041;-72
2021/10/28 06:03:41;;;;;;;22.38;10.02;;;;;;;4.77;100.00;101723.50;5138025;28;20101;-73
2021/10/28 06:06:12;;;;;;;25.40;11.65;;;;;;;4.75;100.00;101719.22;5137862;28;20393;-73
2021/10/28 06:08:42;;;;;;;20.75;8.52;;;;;;;4.73;100.00;101721.16;5138087;28;20023;-73
2021/10/28 06:11:15;;;;;;;18.35;8.68;;;;;;;4.68;100.00;101729.47;5140166;28;20034;-72
2021/10/28 06:13:48;;;;;;;20.17;9.77;;;;;;;4.66;100.00;101715.41;5142185;28;20026;-72
2021/10/28 06:16:18;;;;;;;42.60;10.80;;;;;;;4.64;100.00;101726.16;5142403;28;20022;-73
2021/10/28 06:18:50;;;;;;;27.27;10.93;;;;;;;4.64;100.00;101710.19;5142131;28;20796;-72
2021/10/28 06:21:25;;;;;;;27.25;10.07;;;;;;;4.65;100.00;101698.59;5142239;28;20109;-73
2021/10/28 06:23:55;;;;;;;26.85;10.27;;;;;;;4.67;100.00;101704.69;5141714;28;20019;-72
2021/10/28 06:26:29;;;;;;;21.52;9.23;;;;;;;4.66;100.00;101704.78;5141936;28;20516;-72
2021/10/28 06:28:59;;;;;;;23.98;10.85;;;;;;;4.65;100.00;101700.41;5141661;28;20065;-72
2021/10/28 06:31:29;;;;;;;28.27;10.20;;;;;;;4.66;100.00;101699.47;5142279;28;20492;-72
2021/10/28 06:34:05;;;;;;;28.13;9.95;;;;;;;4.67;100.00;101699.38;5141769;28;20432;-72
2021/10/28 06:36:38;;;;;;;27.83;9.85;;;;;;;4.66;100.00;101705.63;5141890;28;20037;-73
2021/10/28 06:39:08;;;;;;;18.65;8.05;;;;;;;4.64;100.00;101702.22;5140810;28;20034;-72
2021/10/28 06:41:39;;;;;;;23.67;8.13;;;;;;;4.65;100.00;101703.06;5142284;28;20031;-73
2021/10/28 06:44:09;;;;;;;23.90;9.63;;;;;;;4.69;100.00;101712.53;5141727;28;20031;-72
2021/10/28 06:46:40;;;;;;;22.58;9.02;;;;;;;4.71;100.00;101709.78;5141956;28;20054;-72
2021/10/28 06:49:10;;;;;;;21.17;9.50;;;;;;;4.72;100.00;101716.78;5141496;28;20135;-72
2021/10/28 06:51:41;;;;;;;25.20;9.65;;;;;;;4.73;100.00;101715.84;5141638;28;20485;-72
2021/10/28 06:54:26;;;;;;;19.20;7.78;;;;;;;4.74;100.00;101714.88;5141060;28;20034;-72
2021/10/28 06:57:11;;;;;;;16.63;7.88;;;;;;;4.76;100.00;101716.47;5142310;28;20526;-72
2021/10/28 07:02:33;;;;;;;33.55;10.65;;;;;;;4.82;100.00;101717.84;5140661;28;20035;-72
2021/10/28 07:05:05;;;;;;;22.73;9.07;;;;;;;4.86;100.00;101719.31;5141500;28;20412;-72
2021/10/28 07:07:36;;;;;;;22.00;8.00;;;;;;;4.90;100.00;101724.31;5141308;28;20101;-72
2021/10/28 07:10:15;;;;;;;24.80;9.98;;;;;;;4.99;100.00;101721.97;5141277;28;20149;-72
2021/10/28 07:12:53;;;;;;;17.13;8.48;;;;;;;5.12;100.00;101720.13;5155735;28;20150;-73
2021/10/28 07:15:31;;;;;;;18.60;8.40;;;;;;;5.23;100.00;101722.91;5141000;28;20504;-72
2021/10/28 07:18:20;;;;;;;22.23;8.63;;;;;;;5.35;100.00;101722.00;5140885;28;20705;-72
2021/10/28 07:21:13;;;;;;;17.95;7.60;;;;;;;5.50;100.00;101713.88;5141263;28;20113;-73
2021/10/28 07:26:44;;;;;;;24.15;9.65;;;;;;;6.01;100.00;101703.84;5129601;28;20477;-72
2021/10/28 07:34:56;;;;;;;17.55;8.70;;;;;;;7.92;100.00;101720.63;5140888;28;20570;-73
2021/10/28 08:00:06;;;;;;;21.58;10.75;;;;;;;12.03;100.00;101707.88;5139668;28;20035;-73
2021/10/28 08:05:49;;;;;;;23.17;11.70;;;;;;;12.36;100.00;101703.63;5140216;28;20105;-73
2021/10/28 08:14:19;;;;;;;18.85;10.55;;;;;;;13.25;100.00;101699.75;5139800;28;20031;-73
2021/10/28 08:22:19;;;;;;;21.35;10.25;;;;;;;13.64;100.00;101689.25;5140155;28;20035;-73
2021/10/28 08:30:26;;;;;;;18.17;9.60;;;;;;;13.80;100.00;101683.03;5140035;28;20102;-73
2021/10/28 08:32:57;;;;;;;19.55;9.95;;;;;;;13.97;100.00;101684.75;5140177;28;20477;-73
2021/10/28 08:35:29;;;;;;;21.20;10.57;;;;;;;13.93;100.00;101686.91;5138191;28;20035;-73
2021/10/28 08:38:01;;;;;;;16.70;8.95;;;;;;;14.02;100.00;101678.84;5139792;28;20060;-73
2021/10/28 08:40:31;;;;;;;15.32;9.20;;;;;;;14.31;100.00;101679.16;5138686;28;20039;-72
2021/10/28 08:43:04;;;;;;;18.23;9.68;;;;;;;14.60;100.00;101680.47;5139951;28;20488;-75
2021/10/28 08:45:36;;;;;;;18.90;9.88;;;;;;;15.02;100.00;101685.59;5139100;28;20549;-72
2021/10/28 08:48:08;;;;;;;19.67;10.40;;;;;;;14.71;100.00;101674.72;5139492;28;20034;-72
2021/10/28 08:50:46;;;;;;;20.75;10.15;;;;;;;14.46;100.00;101673.91;5138284;28;20054;-72
2021/10/28 08:55:58;;;;;;;18.40;10.00;;;;;;;15.13;100.00;101663.59;5139207;28;20055;-72
2021/10/28 08:58:57;;;;;;;17.38;8.98;;;;;;;15.18;100.00;101663.91;5139369;28;20031;-72
2021/10/28 09:24:58;;;;;;;15.75;8.93;;;;;;;15.69;100.00;101648.06;5138261;28;20026;-72
2021/10/28 09:27:48;;;;;;;17.40;8.60;;;;;;;15.47;100.00;101635.34;5138884;28;20026;-72
2021/10/28 09:30:32;;;;;;;20.58;10.63;;;;;;;15.00;100.00;101638.97;5138180;28;20399;-73
2021/10/28 09:33:12;;;;;;;18.35;9.93;;;;;;;15.70;100.00;101632.66;5126440;28;20357;-73
2021/10/28 09:36:16;;;;;;;19.83;10.45;;;;;;;15.84;100.00;101618.34;5138083;28;20031;-73
2021/10/28 09:45:05;;;;;;;18.13;9.60;;;;;;;15.50;100.00;101610.63;5138269;28;20023;-73
2021/10/28 09:48:03;;;;;;;15.73;8.63;;;;;;;15.66;100.00;101604.28;5126919;28;20031;-73
2021/10/28 09:50:48;;;;;;;18.17;8.70;;;;;;;15.77;100.00;101602.03;5138068;28;20061;-73
2021/10/28 09:58:26;;;;;;;18.73;8.27;;;;;;;15.11;100.00;101587.25;5138257;28;20469;-73
2021/10/28 10:00:58;;;;;;;17.52;8.95;;;;;;;14.84;100.00;101587.72;5137857;28;20033;-73
2021/10/28 10:03:32;;;;;;;18.10;7.75;;;;;;;14.50;100.00;101588.88;5138016;28;20399;-73
2021/10/28 10:06:16;;;;;;;15.88;8.00;;;;;;;14.56;100.00;101577.41;5138183;28;20019;-73
2021/10/28 10:08:48;;;;;;;15.88;8.30;;;;;;;14.10;100.00;101570.91;5138077;28;20103;-73
2021/10/28 10:11:24;;;;;;;16.50;8.95;;;;;;;14.37;100.00;101583.16;5137844;28;20027;-73
2021/10/28 10:13:57;;;;;;;18.23;8.48;;;;;;;14.64;100.00;101582.75;5138356;28;20095;-73
2021/10/28 10:16:29;;;;;;;14.93;7.10;;;;;;;14.57;100.00;101576.38;5137760;28;20026;-73
2021/10/28 10:19:01;;;;;;;14.45;6.82;;;;;;;14.50;100.00;101578.91;5138024;28;20027;-73
2021/10/28 10:21:40;;;;;;;25.60;8.02;;;;;;;14.46;100.00;101577.56;5137972;28;20261;-73
2021/10/28 10:27:33;;;;;;;14.07;6.53;;;;;;;14.50;100.00;101575.38;5137840;28;20066;-73
2021/10/28 10:30:12;;;;;;;14.73;7.18;;;;;;;14.59;100.00;101568.09;5137960;28;20549;-73
2021/10/28 12:01:25;;;;;;;7.30;4.93;;;;;;;15.63;100.00;101472.13;5140855;28;20030;-74
2021/10/28 12:16:43;;;;;;;5.47;3.38;;;;;;;16.26;100.00;101412.03;5140006;28;20030;-74
2021/10/28 12:22:30;;;;;;;8.63;4.00;;;;;;;16.24;100.00;101397.84;5140274;28;20056;-73
2021/10/28 12:25:15;;;;;;;6.28;3.80;;;;;;;16.17;100.00;101391.53;5139916;28;20066;-74
2021/10/28 12:45:22;;;;;;;5.82;3.17;;;;;;;16.47;100.00;101364.38;5140148;28;20046;-74
2021/10/28 13:36:15;;;;;;;5.45;2.75;;;;;;;16.65;100.00;101323.28;5139160;28;20034;-74
2021/10/28 13:53:13;;;;;;;5.88;2.50;;;;;;;16.68;100.00;101299.34;5138367;28;20033;-75
2021/10/28 14:26:50;;;;;;;8.07;2.38;;;;;;;16.60;100.00;101264.28;5134987;28;20118;-74
2021/10/28 14:35:08;;;;;;;6.10;2.70;;;;;;;16.62;100.00;101256.81;5139184;28;20027;-75
2021/10/28 14:37:29;;;;;;;5.65;2.67;;;;;;;16.58;100.00;101250.94;5138569;28;20034;-75
2021/10/28 15:00:24;;;;;;;8.63;3.40;;;;;;;16.41;100.00;101245.97;5137617;28;20065;-75
2021/10/28 15:30:35;;;;;;;6.07;2.53;;;;;;;15.80;100.00;101225.59;5139318;28;20548;-75
2021/10/28 15:35:59;;;;;;;5.68;2.70;;;;;;;15.57;100.00;101224.91;5138905;28;20045;-74
2021/10/28 15:55:19;;;;;;;4.30;2.67;;;;;;;14.93;100.00;101197.66;5137918;28;20039;-74
2021/10/28 16:21:47;;;;;;;7.47;2.67;;;;;;;14.62;100.00;101193.25;5137855;28;20081;-73
2021/10/28 16:22:47;;;;;;;6.82;3.63;;;;;;;14.01;100.00;101181.63;5138842;28;20071;-74
2021/10/28 16:25:17;;;;;;;8.65;3.28;;;;;;;13.90;100.00;101182.03;5153538;28;20033;-74
2021/10/28 16:27:48;;;;;;;6.50;3.17;;;;;;;13.79;100.00;101169.81;5138723;28;20040;-74
2021/10/28 16:30:18;;;;;;;8.15;3.30;;;;;;;13.70;100.00;101171.75;5153436;28;21263;-74
2021/10/28 16:32:49;;;;;;;11.15;3.38;;;;;;;13.72;100.00;101180.47;5138993;28;20384;-74
2021/10/28 16:35:19;;;;;;;6.40;3.22;;;;;;;13.66;100.00;101177.66;5137494;28;20031;-74
2021/10/28 16:37:51;;;;;;;10.65;3.50;;;;;;;13.58;100.00;101175.84;5138152;28;20401;-73
2021/10/28 16:40:21;;;;;;;8.45;3.38;;;;;;;13.51;100.00;101172.19;5137465;28;20035;-73
2021/10/28 16:42:52;;;;;;;10.50;3.72;;;;;;;13.40;100.00;101180.66;5137462;28;20023;-73
2021/10/28 16:45:22;;;;;;;6.10;3.60;;;;;;;13.35;100.00;101173.09;5137987;28;20109;-72
2021/10/28 16:47:53;;;;;;;7.65;3.38;;;;;;;13.31;100.00;101170.97;5137557;28;20026;-73
2021/10/28 16:50:23;;;;;;;6.90;3.17;;;;;;;13.28;100.00;101165.91;5138123;28;20031;-73
2021/10/28 16:52:54;;;;;;;8.85;4.13;;;;;;;13.28;100.00;101168.63;5137178;28;20380;-73
2021/10/28 16:55:25;;;;;;;5.63;3.50;;;;;;;13.23;100.00;101171.00;5136918;28;20042;-73
2021/10/28 16:57:55;;;;;;;11.80;4.68;;;;;;;13.18;100.00;101169.63;5137564;28;20049;-73
2021/10/28 17:00:26;;;;;;;8.63;3.72;;;;;;;13.14;100.00;101164.75;5136826;28;20030;-73
2021/10/28 17:02:57;;;;;;;7.78;3.83;;;;;;;13.11;100.00;101160.59;5137733;28;20058;-73
2021/10/28 17:05:27;;;;;;;8.75;4.03;;;;;;;13.03;100.00;101165.16;5137945;28;20034;-73
2021/10/28 17:07:58;;;;;;;11.35;4.88;;;;;;;13.00;100.00;101166.31;5137148;28;20023;-73
2021/10/28 17:10:29;;;;;;;8.23;4.03;;;;;;;12.97;100.00;101164.00;5137840;28;20100;-73
2021/10/28 17:13:00;;;;;;;6.88;3.63;;;;;;;12.92;100.00;101161.00;5136180;28;20026;-73
2021/10/28 17:15:30;;;;;;;9.18;3.90;;;;;;;12.92;100.00;101161.00;5137719;28;20077;-73
2021/10/28 17:18:01;;;;;;;8.25;4.20;;;;;;;12.90;100.00;101158.47;5137197;28;20387;-73
2021/10/28 17:20:35;;;;;;;10.80;4.00;;;;;;;12.90;100.00;101153.09;5137202;28;20038;-73
2021/10/28 17:23:10;;;;;;;9.18;4.05;;;;;;;12.89;100.00;101147.88;5137540;28;20041;-73
2021/10/28 17:25:50;;;;;;;6.15;3.67;;;;;;;12.88;100.00;101149.72;5137462;28;20080;-73
2021/10/28 17:28:20;;;;;;;10.90;4.20;;;;;;;12.96;100.00;101135.41;5137665;28;20113;-73
2021/10/28 17:30:51;;;;;;;10.32;4.07;;;;;;;12.94;100.00;101151.72;5136257;28;20174;-73
2021/10/28 17:33:22;;;;;;;8.27;3.83;;;;;;;12.87;100.00;101153.44;5136026;28;20051;-73
2021/10/28 17:35:54;;;;;;;9.15;4.47;;;;;;;12.80;100.00;101146.22;5136755;28;20027;-73
2021/10/28 17:38:27;;;;;;;8.73;4.40;;;;;;;12.79;100.00;101149.91;5136993;28;20034;-72
2021/10/28 17:40:57;;;;;;;8.27;3.92;;;;;;;12.69;100.00;101147.41;5151634;28;20026;-72
2021/10/28 17:43:30;;;;;;;7.00;4.15;;;;;;;12.59;100.00;101150.31;5138107;28;20034;-73
2021/10/28 17:46:03;;;;;;;10.77;4.07;;;;;;;12.51;100.00;101153.03;5136655;28;20444;-73
2021/10/28 17:48:33;;;;;;;12.85;5.40;;;;;;;12.43;100.00;101148.50;5137006;28;20038;-72
2021/10/28 17:51:04;;;;;;;5.70;4.03;;;;;;;12.38;100.00;101166.16;5137727;28;20089;-73
2021/10/28 17:53:36;;;;;;;7.65;4.38;;;;;;;12.40;100.00;101156.09;5138449;28;20093;-72
2021/10/28 17:56:06;;;;;;;9.55;5.47;;;;;;;12.37;100.00;101157.25;5139309;28;20046;-74
2021/10/28 17:58:37;;;;;;;11.60;4.30;;;;;;;12.31;100.00;101160.63;5136229;28;20023;-75
2021/10/28 18:01:08;;;;;;;7.38;4.13;;;;;;;12.27;100.00;101155.75;5137430;28;20319;-73
2021/10/28 18:03:38;;;;;;;9.20;4.10;;;;;;;12.21;100.00;101161.81;5137462;28;20424;-73
2021/10/28 18:06:09;;;;;;;12.10;4.45;;;;;;;12.19;100.00;101156.59;5137491;28;20035;-74
2021/10/28 18:08:40;;;;;;;7.88;4.10;;;;;;;12.21;100.00;101156.44;5137024;28;20468;-73
2021/10/28 18:11:10;;;;;;;9.30;4.90;;;;;;;12.23;100.00;101163.31;5136106;28;20038;-73
2021/10/28 18:13:41;;;;;;;9.43;4.65;;;;;;;12.17;100.00;101153.25;5137301;28;20110;-74
2021/10/28 18:16:11;;;;;;;6.70;4.22;;;;;;;12.19;100.00;101152.03;5152377;28;20081;-73
2021/10/28 18:18:42;;;;;;;10.07;4.28;;;;;;;12.08;100.00;101157.78;5137161;28;20035;-74
2021/10/28 18:21:12;;;;;;;9.82;4.53;;;;;;;12.03;100.00;101153.91;5137000;28;20198;-73
2021/10/28 18:23:48;;;;;;;8.57;4.70;;;;;;;11.97;100.00;101154.59;5136914;28;20023;-73
2021/10/28 18:26:20;;;;;;;8.27;4.43;;;;;;;11.91;100.00;101150.72;5137041;28;20055;-73
2021/10/28 18:28:51;;;;;;;9.77;5.05;;;;;;;11.81;100.00;101144.66;5135594;28;20136;-73
2021/10/28 18:31:23;;;;;;;7.88;4.28;;;;;;;11.73;100.00;101140.09;5137362;28;20030;-74
2021/10/28 18:33:59;;;;;;;9.75;4.45;;;;;;;11.72;100.00;101140.25;5136634;28;20153;-74
2021/10/28 18:36:31;;;;;;;12.02;5.20;;;;;;;11.64;100.00;101136.53;5135780;28;20058;-73
2021/10/28 18:39:05;;;;;;;9.57;4.40;;;;;;;11.57;100.00;101132.84;5135351;28;20071;-73
2021/10/28 18:41:36;;;;;;;8.45;4.65;;;;;;;11.54;100.00;101126.97;5135712;28;20376;-73
2021/10/28 18:44:07;;;;;;;8.57;5.55;;;;;;;11.46;100.00;101127.81;5136719;28;20105;-73
2021/10/28 18:46:38;;;;;;;11.73;5.63;;;;;;;11.44;100.00;101123.59;5136210;28;20109;-73
2021/10/28 18:49:09;;;;;;;10.00;5.13;;;;;;;11.37;100.00;101118.03;5136562;28;20027;-73
2021/10/28 18:51:42;;;;;;;10.18;4.95;;;;;;;11.37;100.00;101104.63;5136997;28;20392;-73
2021/10/28 18:54:14;;;;;;;13.85;5.50;;;;;;;11.33;100.00;101104.09;5136982;28;20385;-73
2021/10/28 18:56:46;;;;;;;8.95;5.28;;;;;;;11.26;100.00;101099.56;5136708;28;20101;-73
2021/10/28 18:59:18;;;;;;;12.73;5.53;;;;;;;11.21;100.00;101104.59;5134775;28;20347;-73
2021/10/28 19:01:49;;;;;;;9.32;5.03;;;;;;;11.13;100.00;101098.16;5137075;28;20034;-73
2021/10/28 19:04:20;;;;;;;11.13;5.45;;;;;;;11.12;100.00;101098.34;5137223;28;20042;-74
2021/10/28 19:06:51;;;;;;;9.18;5.10;;;;;;;11.22;100.00;101101.72;5136529;28;20472;-73
2021/10/28 19:09:22;;;;;;;13.27;5.53;;;;;;;11.19;100.00;101085.09;5134504;28;20062;-73
2021/10/28 19:11:53;;;;;;;10.13;5.20;;;;;;;11.11;100.00;101092.13;5136433;28;20456;-73
2021/10/28 19:14:23;;;;;;;9.45;4.95;;;;;;;11.03;100.00;101089.41;5136322;28;20085;-73
2021/10/28 19:16:54;;;;;;;11.55;5.32;;;;;;;11.00;100.00;101094.28;5136522;28;20034;-74
2021/10/28 19:19:25;;;;;;;11.93;5.88;;;;;;;10.91;100.00;101096.09;5153053;28;20042;-74